Time;durP1;ratioP1;P1;durP2;ratioP2;P2;SDS_P1;SDS_P2;PMS_P1;PMS_P2;Temp;Humidity;BMP_temperature;BMP_pressure;BME280_temperature;BME280_humidity;BME280_pressure;Samples;Min_cycle;Max_cycle;Signal;HPM_P1;HPM_P2
2023/01/21 00:03:00;;;;;;;3.67;3.10;;;;;;;;;;10367139;28;20049;-66
2023/01/21 00:08:01;;;;;;;4.60;3.53;;;;;;;;;;10367654;28;20087;-56
2023/01/21 00:13:01;;;;;;;4.40;3.30;;;;;;;;;;10368972;28;20036;-63
2023/01/21 00:18:02;;;;;;;6.95;3.28;;;;;;;;;;10367419;28;20064;-63
2023/01/21 00:23:03;;;;;;;4.25;3.22;;;;;;;;;;10368277;28;20026;-51
2023/01/21 00:28:04;;;;;;;3.63;3.15;;;;;;;;;;10368912;28;20363;-54
2023/01/21 00:33:04;;;;;;;5.68;3.25;;;;;;;;;;10372842;28;20034;-60
2023/01/21 00:38:05;;;;;;;4.63;3.40;;;;;;;;;;10367569;28;20029;-53
2023/01/21 00:43:05;;;;;;;6.05;3.28;;;;;;;;;;10368097;28;20034;-64
2023/01/21 00:48:06;;;;;;;9.00;3.50;;;;;;;;;;10366695;28;20141;-65
2023/01/21 00:53:07;;;;;;;4.97;3.25;;;;;;;;;;10366426;28;20186;-53
2023/01/21 00:58:07;;;;;;;6.70;3.38;;;;;;;;;;10365298;28;20022;-63
2023/01/21 01:03:08;;;;;;;7.07;3.17;;;;;;;;;;10366649;28;20034;-64
2023/01/21 01:08:09;;;;;;;4.30;3.20;;;;;;;;;;10366668;28;20481;-62
2023/01/21 01:13:09;;;;;;;10.23;3.13;;;;;;;;;;10336966;28;20034;-62
2023/01/21 01:18:10;;;;;;;3.67;3.20;;;;;;;;;;10365954;28;20030;-66
2023/01/21 01:23:10;;;;;;;3.45;2.80;;;;;;;;;;10366383;28;20084;-64
2023/01/21 01:28:11;;;;;;;5.28;3.13;;;;;;;;;;10354920;28;20032;-65
2023/01/21 01:33:11;;;;;;;3.75;2.90;;;;;;;;;;10365612;28;20050;-57
2023/01/21 01:38:19;;;;;;;6.43;3.10;;;;;;;;;;10365294;28;20060;-60
2023/01/21 01:44:00;;;;;;;3.60;2.63;;;;;;;;;;10362247;28;20033;-61
2023/01/21 01:49:13;;;;;;;5.45;3.05;;;;;;;;;;10352168;28;20038;-55
2023/01/21 01:54:28;;;;;;;4.05;2.83;;;;;;;;;;10351059;28;20445;-65
2023/01/21 01:59:30;;;;;;;4.25;3.20;;;;;;;;;;10364617;28;20030;-65
2023/01/21 02:04:38;;;;;;;4.07;3.30;;;;;;;;;;10344187;28;20112;-64
2023/01/21 02:09:39;;;;;;;4.13;2.90;;;;;;;;;;10359418;28;20033;-66
2023/01/21 02:14:43;;;;;;;4.95;2.85;;;;;;;;;;10373725;28;20029;-63
2023/01/21 02:20:08;;;;;;;4.43;2.67;;;;;;;;;;10358800;28;20042;-60
2023/01/21 02:25:52;;;;;;;5.38;2.95;;;;;;;;;;10373083;28;20454;-61
2023/01/21 02:30:58;;;;;;;6.30;2.83;;;;;;;;;;10370705;28;20026;-64
2023/01/21 02:36:35;;;;;;;5.95;2.88;;;;;;;;;;10378059;28;20128;-65
2023/01/21 02:42:42;;;;;;;4.32;2.70;;;;;;;;;;10376069;28;20112;-65
2023/01/21 02:48:09;;;;;;;5.50;2.70;;;;;;;;;;10361733;28;20050;-67
2023/01/21 02:53:30;;;;;;;3.33;2.65;;;;;;;;;;10367067;28;20065;-63
2023/01/21 02:58:36;;;;;;;4.30;2.60;;;;;;;;;;10379011;28;20030;-47
2023/01/21 03:04:13;;;;;;;3.90;2.80;;;;;;;;;;10375416;28;20032;-51
2023/01/21 03:09:25;;;;;;;2.88;2.30;;;;;;;;;;10366370;28;20025;-46
2023/01/21 03:20:15;;;;;;;3.80;2.03;;;;;;;;;;10372193;28;20033;-50
2023/01/21 03:25:16;;;;;;;2.33;2.13;;;;;;;;;;10369797;28;20025;-49
2023/01/21 03:30:22;;;;;;;3.40;2.20;;;;;;;;;;10370205;28;20029;-48
2023/01/21 03:35:28;;;;;;;2.83;2.38;;;;;;;;;;10369795;28;20034;-66
2023/01/21 03:40:36;;;;;;;2.53;2.15;;;;;;;;;;10352323;28;20556;-46
2023/01/21 03:45:52;;;;;;;2.97;2.42;;;;;;;;;;10368842;28;20064;-50
2023/01/21 03:51:04;;;;;;;2.78;2.20;;;;;;;;;;10351098;28;20041;-48
2023/01/21 03:56:04;;;;;;;2.30;2.10;;;;;;;;;;10352041;28;20060;-47
2023/01/21 04:01:05;;;;;;;2.28;2.08;;;;;;;;;;10369691;28;20052;-58
2023/01/21 04:06:06;;;;;;;3.90;2.80;;;;;;;;;;10366034;28;20046;-53
2023/01/21 04:11:06;;;;;;;6.43;2.40;;;;;;;;;;10367422;28;20040;-63
2023/01/21 04:16:07;;;;;;;8.52;2.10;;;;;;;;;;10366382;28;20030;-45
2023/01/21 04:21:08;;;;;;;3.75;2.60;;;;;;;;;;10367433;28;20053;-65
2023/01/21 04:26:09;;;;;;;5.70;2.78;;;;;;;;;;10364112;28;20034;-66
2023/01/21 04:31:10;;;;;;;5.28;2.58;;;;;;;;;;10365588;28;20053;-65
2023/01/21 04:36:10;;;;;;;2.97;2.35;;;;;;;;;;10366659;28;20018;-65
2023/01/21 04:41:11;;;;;;;3.25;2.20;;;;;;;;;;10348834;28;20026;-61
2023/01/21 04:46:11;;;;;;;2.83;2.33;;;;;;;;;;10367523;28;20489;-49
2023/01/21 04:51:12;;;;;;;4.03;2.35;;;;;;;;;;10366966;28;20054;-51
2023/01/21 04:56:12;;;;;;;5.63;2.60;;;;;;;;;;10366760;28;20091;-65
2023/01/21 05:01:13;;;;;;;3.78;2.75;;;;;;;;;;10366767;28;20474;-64
2023/01/21 05:06:14;;;;;;;6.15;2.40;;;;;;;;;;10366883;28;20485;-65
2023/01/21 05:11:17;;;;;;;3.40;2.35;;;;;;;;;;10366363;28;20473;-61
2023/01/21 05:16:18;;;;;;;3.33;2.28;;;;;;;;;;10347636;28;20079;-65
2023/01/21 05:21:18;;;;;;;4.57;2.53;;;;;;;;;;10366417;28;20076;-62
2023/01/21 05:26:19;;;;;;;3.60;2.50;;;;;;;;;;10364914;28;20037;-65
2023/01/21 05:31:19;;;;;;;4.20;2.15;;;;;;;;;;10365208;28;20025;-56
2023/01/21 05:36:20;;;;;;;3.13;2.50;;;;;;;;;;10364980;28;20025;-57
2023/01/21 05:41:21;;;;;;;4.57;2.55;;;;;;;;;;10364049;28;20052;-65
2023/01/21 05:46:21;;;;;;;2.33;2.13;;;;;;;;;;10363915;28;20045;-57
2023/01/21 05:51:22;;;;;;;2.42;2.10;;;;;;;;;;10364083;28;20046;-64
2023/01/21 05:56:22;;;;;;;2.83;1.98;;;;;;;;;;10365534;28;20493;-58
2023/01/21 06:01:23;;;;;;;2.78;2.00;;;;;;;;;;10365280;28;20629;-59
2023/01/21 06:06:24;;;;;;;5.65;2.00;;;;;;;;;;10364755;28;20029;-51
2023/01/21 06:11:24;;;;;;;2.80;1.95;;;;;;;;;;10364556;28;20022;-64
2023/01/21 06:16:25;;;;;;;2.42;2.10;;;;;;;;;;10364271;28;20026;-53
2023/01/21 06:21:25;;;;;;;2.60;2.00;;;;;;;;;;10365183;28;20030;-49
2023/01/21 06:26:26;;;;;;;2.10;1.90;;;;;;;;;;10363459;28;20032;-54
2023/01/21 06:31:26;;;;;;;2.28;1.75;;;;;;;;;;10363792;28;20025;-61
2023/01/21 06:36:27;;;;;;;2.25;2.03;;;;;;;;;;10364900;28;20025;-58
2023/01/21 06:41:27;;;;;;;3.70;1.80;;;;;;;;;;10364167;28;20022;-55
2023/01/21 06:46:28;;;;;;;4.13;1.80;;;;;;;;;;10364019;28;20018;-58
2023/01/21 06:51:29;;;;;;;4.72;1.70;;;;;;;;;;10363543;28;20042;-62
2023/01/21 06:56:29;;;;;;;1.70;1.50;;;;;;;;;;10370635;28;20045;-61
2023/01/21 07:01:30;;;;;;;1.77;1.67;;;;;;;;;;10370075;28;20033;-64
2023/01/21 07:06:30;;;;;;;3.65;1.75;;;;;;;;;;10370739;28;20500;-65
2023/01/21 07:11:31;;;;;;;4.20;1.92;;;;;;;;;;10370945;28;20461;-60
2023/01/21 07:16:32;;;;;;;6.30;1.63;;;;;;;;;;10370164;28;20469;-55
2023/01/21 07:21:32;;;;;;;3.60;1.60;;;;;;;;;;10370272;28;20228;-49
2023/01/21 07:26:36;;;;;;;1.90;1.67;;;;;;;;;;10369495;28;20393;-47
2023/01/21 07:31:37;;;;;;;3.30;2.00;;;;;;;;;;10368720;28;20409;-52
2023/01/21 07:36:38;;;;;;;4.35;1.90;;;;;;;;;;10370498;28;20018;-53
2023/01/21 07:41:39;;;;;;;2.17;1.60;;;;;;;;;;10369515;28;20058;-61
2023/01/21 07:46:40;;;;;;;2.83;1.67;;;;;;;;;;10369672;28;20366;-61
2023/01/21 07:51:40;;;;;;;2.22;1.90;;;;;;;;;;10369521;28;20480;-62
2023/01/21 07:56:41;;;;;;;6.88;2.03;;;;;;;;;;10369020;28;20022;-61
2023/01/21 08:01:42;;;;;;;5.75;1.88;;;;;;;;;;10369915;28;20040;-61
2023/01/21 08:06:42;;;;;;;7.13;2.05;;;;;;;;;;10366038;28;20041;-59
2023/01/21 08:11:43;;;;;;;4.30;1.75;;;;;;;;;;10367619;28;20033;-59
2023/01/21 08:16:43;;;;;;;6.65;1.80;;;;;;;;;;10367742;28;20511;-62
2023/01/21 08:21:44;;;;;;;6.32;1.80;;;;;;;;;;10367510;28;20087;-62
2023/01/21 08:26:45;;;;;;;4.88;1.67;;;;;;;;;;10365324;28;20041;-61
2023/01/21 08:31:45;;;;;;;6.82;1.55;;;;;;;;;;10361443;28;20662;-61
2023/01/21 08:36:46;;;;;;;4.53;1.40;;;;;;;;;;10373215;28;20034;-61
2023/01/21 08:41:46;;;;;;;4.55;1.88;;;;;;;;;;10366895;28;20358;-61
2023/01/21 08:46:47;;;;;;;13.95;2.30;;;;;;;;;;10365461;28;20385;-61
2023/01/21 08:51:48;;;;;;;14.30;3.40;;;;;;;;;;10366126;28;20072;-61
2023/01/21 08:56:49;;;;;;;11.00;2.60;;;;;;;;;;10356988;28;20025;-57
2023/01/21 09:01:49;;;;;;;12.68;2.50;;;;;;;;;;10367191;28;20034;-61
2023/01/21 09:06:50;;;;;;;22.58;2.17;;;;;;;;;;10365620;28;20056;-52
2023/01/21 09:11:51;;;;;;;16.55;2.45;;;;;;;;;;10365930;28;20025;-58
2023/01/21 09:16:54;;;;;;;7.90;2.22;;;;;;;;;;10365859;28;20033;-56
2023/01/21 09:21:55;;;;;;;13.77;3.65;;;;;;;;;;10365506;28;20026;-62
2023/01/21 09:26:55;;;;;;;10.90;3.15;;;;;;;;;;10365481;28;20034;-59
2023/01/21 09:31:56;;;;;;;14.75;2.60;;;;;;;;;;10348069;28;20033;-63
2023/01/21 09:36:57;;;;;;;13.23;2.80;;;;;;;;;;10365692;28;20030;-62
2023/01/21 09:41:57;;;;;;;5.03;2.58;;;;;;;;;;10365055;28;20029;-63
2023/01/21 09:47:24;;;;;;;11.15;3.00;;;;;;;;;;10365163;28;20037;-47
2023/01/21 09:52:46;;;;;;;7.75;3.17;;;;;;;;;;10364731;28;20073;-54
2023/01/21 09:58:32;;;;;;;15.90;3.47;;;;;;;;;;10364506;28;20030;-48
2023/01/21 10:03:41;;;;;;;10.32;3.00;;;;;;;;;;10353758;28;20040;-49
2023/01/21 10:09:14;;;;;;;9.07;3.03;;;;;;;;;;10353401;28;20030;-46
2023/01/21 10:14:26;;;;;;;10.57;3.20;;;;;;;;;;10362595;28;20033;-46
2023/01/21 10:20:06;;;;;;;13.38;3.13;;;;;;;;;;10364551;28;20022;-45
2023/01/21 10:25:30;;;;;;;13.80;2.97;;;;;;;;;;10348467;28;20125;-60
2023/01/21 10:30:38;;;;;;;13.27;2.63;;;;;;;;;;10371335;28;20096;-51
2023/01/21 10:36:16;;;;;;;5.70;2.57;;;;;;;;;;10371855;28;20050;-57
2023/01/21 10:41:52;;;;;;;9.10;2.78;;;;;;;;;;10368936;28;20053;-49
2023/01/21 10:46:55;;;;;;;22.60;3.78;;;;;;;;;;10368553;28;20060;-51
2023/01/21 10:52:34;;;;;;;14.23;3.42;;;;;;;;;;10362056;28;20409;-48
2023/01/21 10:57:53;;;;;;;10.75;3.47;;;;;;;;;;10365463;28;20049;-45
2023/01/21 11:03:00;;;;;;;7.72;3.22;;;;;;;;;;10367563;28;20105;-48
2023/01/21 11:08:01;;;;;;;13.90;3.10;;;;;;;;;;10370308;28;20049;-46
2023/01/21 11:13:04;;;;;;;8.93;2.80;;;;;;;;;;10353206;28;20501;-46
2023/01/21 11:18:31;;;;;;;12.23;3.25;;;;;;;;;;10370095;28;20033;-45
2023/01/21 11:23:38;;;;;;;16.98;3.03;;;;;;;;;;10372918;28;20121;-46
2023/01/21 11:28:38;;;;;;;7.20;2.72;;;;;;;;;;10351928;28;20042;-55
2023/01/21 11:33:41;;;;;;;5.40;2.88;;;;;;;;;;10368021;28;20038;-56
2023/01/21 11:38:46;;;;;;;9.07;2.72;;;;;;;;;;10369214;28;20046;-55
2023/01/21 11:43:51;;;;;;;8.32;2.92;;;;;;;;;;10366046;28;20121;-49
2023/01/21 11:49:07;;;;;;;6.00;2.88;;;;;;;;;;10366715;28;20084;-57
2023/01/21 11:54:21;;;;;;;9.88;3.05;;;;;;;;;;10368620;28;20069;-54
2023/01/21 11:59:33;;;;;;;7.78;3.35;;;;;;;;;;10368805;28;20029;-46
2023/01/21 12:04:35;;;;;;;5.75;2.88;;;;;;;;;;10368121;28;20034;-49
2023/01/21 12:09:36;;;;;;;15.70;3.50;;;;;;;;;;10369928;28;20029;-50
2023/01/21 12:14:53;;;;;;;8.68;2.85;;;;;;;;;;10374627;28;20481;-51
2023/01/21 12:20:14;;;;;;;6.32;2.92;;;;;;;;;;10344625;28;20036;-57
2023/01/21 12:25:40;;;;;;;6.38;2.90;;;;;;;;;;10367756;28;20041;-52
2023/01/21 12:30:53;;;;;;;7.40;2.90;;;;;;;;;;10352893;28;20033;-50
2023/01/21 12:36:00;;;;;;;5.22;2.67;;;;;;;;;;10355969;28;20022;-52
2023/01/21 12:41:10;;;;;;;5.30;2.78;;;;;;;;;;10338241;28;20033;-52
2023/01/21 12:46:26;;;;;;;4.22;2.30;;;;;;;;;;10350896;28;20567;-55
2023/01/21 12:51:45;;;;;;;6.40;2.22;;;;;;;;;;10365893;28;20413;-58
2023/01/21 12:56:57;;;;;;;10.80;2.80;;;;;;;;;;10352603;28;20030;-57
2023/01/21 13:02:24;;;;;;;4.28;2.30;;;;;;;;;;10349650;28;20168;-61
2023/01/21 13:07:46;;;;;;;6.05;2.35;;;;;;;;;;10347938;28;20037;-57
2023/01/21 13:13:18;;;;;;;7.05;2.78;;;;;;;;;;10366817;28;20632;-57
2023/01/21 13:18:37;;;;;;;5.32;2.58;;;;;;;;;;10327819;28;20125;-52
2023/01/21 13:23:50;;;;;;;3.53;2.30;;;;;;;;;;10363005;28;20073;-52
2023/01/21 13:29:25;;;;;;;6.75;2.50;;;;;;;;;;10365299;28;20026;-62
2023/01/21 13:34:43;;;;;;;13.43;2.70;;;;;;;;;;10350670;28;20034;-59
2023/01/21 13:40:14;;;;;;;3.28;2.08;;;;;;;;;;10368959;28;20029;-58
2023/01/21 13:45:42;;;;;;;8.40;2.72;;;;;;;;;;10357906;28;20486;-52
2023/01/21 13:51:06;;;;;;;10.43;2.60;;;;;;;;;;10360452;28;20048;-52
2023/01/21 13:57:07;;;;;;;5.93;2.33;;;;;;;;;;10369587;28;20041;-49
2023/01/21 14:02:24;;;;;;;11.10;2.58;;;;;;;;;;10344566;28;20060;-49
2023/01/21 14:07:36;;;;;;;4.63;2.15;;;;;;;;;;10363804;28;20080;-51
2023/01/21 14:13:22;;;;;;;8.30;2.45;;;;;;;;;;10344121;28;20553;-46
2023/01/21 14:18:33;;;;;;;4.90;2.58;;;;;;;;;;10329169;28;20026;-58
2023/01/21 14:24:11;;;;;;;4.90;2.10;;;;;;;;;;10345748;28;20072;-58
2023/01/21 14:29:31;;;;;;;13.18;2.67;;;;;;;;;;10366216;28;20121;-58
2023/01/21 14:35:20;;;;;;;13.75;3.50;;;;;;;;;;10348105;28;20037;-49
2023/01/21 14:40:34;;;;;;;12.60;2.65;;;;;;;;;;10333563;28;20042;-52
2023/01/21 14:45:55;;;;;;;11.77;2.47;;;;;;;;;;10362357;28;20040;-47
2023/01/21 14:51:04;;;;;;;16.42;2.80;;;;;;;;;;10358735;28;20052;-46
2023/01/21 14:56:15;;;;;;;7.55;2.63;;;;;;;;;;10362584;28;20101;-45
2023/01/21 15:01:40;;;;;;;5.72;2.40;;;;;;;;;;10361071;28;20033;-45
2023/01/21 15:06:42;;;;;;;6.05;2.33;;;;;;;;;;10360640;28;20037;-46
2023/01/21 15:11:43;;;;;;;10.32;2.50;;;;;;;;;;10362613;28;20434;-45
2023/01/21 15:16:45;;;;;;;5.53;2.20;;;;;;;;;;10367628;28;20034;-48
2023/01/21 15:21:58;;;;;;;8.68;2.63;;;;;;;;;;10354506;28;20040;-48
2023/01/21 15:27:15;;;;;;;8.48;2.30;;;;;;;;;;10350108;28;20065;-51
2023/01/21 15:32:39;;;;;;;6.38;2.65;;;;;;;;;;10370114;28;20034;-46
2023/01/21 15:37:45;;;;;;;8.10;2.22;;;;;;;;;;10361227;28;20030;-61
2023/01/21 15:43:47;;;;;;;8.77;2.50;;;;;;;;;;10360980;28;20030;-49
2023/01/21 15:49:34;;;;;;;11.40;2.90;;;;;;;;;;10365452;28;20469;-46
2023/01/21 15:55:24;;;;;;;6.45;2.40;;;;;;;;;;10368577;28;20046;-46
2023/01/21 16:01:00;;;;;;;11.65;2.55;;;;;;;;;;10353763;28;20616;-45
2023/01/21 16:06:27;;;;;;;5.05;2.47;;;;;;;;;;10364282;28;20133;-48
2023/01/21 16:12:04;;;;;;;4.88;2.47;;;;;;;;;;10354601;28;20026;-48
2023/01/21 16:17:39;;;;;;;8.02;2.40;;;;;;;;;;10365084;28;20125;-46
2023/01/21 16:22:46;;;;;;;5.57;2.38;;;;;;;;;;10361638;28;20034;-47
2023/01/21 16:27:50;;;;;;;5.35;2.63;;;;;;;;;;10347249;28;20045;-46
2023/01/21 16:33:26;;;;;;;5.20;2.35;;;;;;;;;;10365857;28;20273;-54
2023/01/21 16:38:29;;;;;;;5.70;2.00;;;;;;;;;;10237030;28;20046;-55
2023/01/21 16:43:33;;;;;;;2.95;2.40;;;;;;;;;;10210526;28;20051;-48
2023/01/21 16:48:34;;;;;;;2.90;2.00;;;;;;;;;;10233041;28;20031;-49
2023/01/21 16:53:34;;;;;;;4.20;2.08;;;;;;;;;;10234897;28;20378;-48
2023/01/21 16:58:35;;;;;;;3.72;2.22;;;;;;;;;;10234583;28;20339;-48
2023/01/21 17:03:36;;;;;;;12.98;2.78;;;;;;;;;;10226762;28;20474;-44
2023/01/21 17:08:37;;;;;;;5.75;2.45;;;;;;;;;;10219244;28;20576;-48
2023/01/21 17:13:42;;;;;;;4.50;2.17;;;;;;;;;;10347406;28;20050;-46
2023/01/21 17:18:55;;;;;;;5.65;2.50;;;;;;;;;;10370023;28;20409;-46
2023/01/21 17:24:06;;;;;;;3.95;2.10;;;;;;;;;;10356240;28;20073;-45
2023/01/21 17:29:28;;;;;;;6.72;2.50;;;;;;;;;;10354729;28;20067;-48
2023/01/21 17:34:32;;;;;;;5.65;2.78;;;;;;;;;;10365638;28;20524;-45
2023/01/21 17:39:45;;;;;;;4.38;2.58;;;;;;;;;;10363373;28;20108;-45
2023/01/21 17:44:54;;;;;;;5.22;2.30;;;;;;;;;;10353499;28;20056;-49
2023/01/21 17:50:11;;;;;;;2.95;2.63;;;;;;;;;;10366531;28;20045;-46
2023/01/21 17:55:32;;;;;;;3.85;2.17;;;;;;;;;;10352149;28;20041;-45
2023/01/21 18:00:41;;;;;;;4.97;2.65;;;;;;;;;;10365720;28;20038;-47
2023/01/21 18:05:42;;;;;;;9.43;3.33;;;;;;;;;;10369578;28;20397;-47
2023/01/21 18:10:44;;;;;;;5.38;2.60;;;;;;;;;;10362791;28;20033;-54
2023/01/21 18:15:50;;;;;;;4.60;2.80;;;;;;;;;;10363529;28;20030;-47
2023/01/21 18:20:50;;;;;;;6.10;2.88;;;;;;;;;;10364603;28;20034;-59
2023/01/21 18:25:52;;;;;;;5.03;3.10;;;;;;;;;;10371585;28;20345;-52
2023/01/21 18:30:55;;;;;;;8.73;2.92;;;;;;;;;;10373895;28;20029;-54
2023/01/21 18:35:56;;;;;;;7.28;3.00;;;;;;;;;;10363589;28;20037;-46
2023/01/21 18:40:56;;;;;;;4.70;3.42;;;;;;;;;;10356392;28;20029;-50
2023/01/21 18:45:57;;;;;;;7.30;3.53;;;;;;;;;;10347561;28;20415;-45
2023/01/21 18:50:58;;;;;;;4.82;3.28;;;;;;;;;;10360196;28;20038;-45
2023/01/21 18:55:58;;;;;;;4.53;2.97;;;;;;;;;;10365734;28;20038;-45
2023/01/21 19:00:59;;;;;;;6.53;3.20;;;;;;;;;;10375301;28;20087;-45
2023/01/21 19:06:00;;;;;;;5.68;3.65;;;;;;;;;;10366613;28;20045;-45
2023/01/21 19:11:00;;;;;;;7.63;3.90;;;;;;;;;;10375988;28;20477;-60
2023/01/21 19:16:01;;;;;;;6.95;3.40;;;;;;;;;;10371087;28;20258;-49
2023/01/21 19:21:02;;;;;;;14.50;3.92;;;;;;;;;;10375839;28;20041;-50
2023/01/21 19:26:03;;;;;;;10.75;4.72;;;;;;;;;;10370944;28;20033;-49
2023/01/21 19:31:04;;;;;;;6.22;3.70;;;;;;;;;;10370264;28;20018;-47
2023/01/21 19:36:14;;;;;;;8.38;4.13;;;;;;;;;;10369587;28;20026;-48
2023/01/21 19:41:15;;;;;;;7.72;4.20;;;;;;;;;;10366676;28;20041;-61
2023/01/21 19:46:17;;;;;;;5.25;3.88;;;;;;;;;;10373842;28;20040;-49
2023/01/21 19:51:17;;;;;;;10.35;4.63;;;;;;;;;;10383062;28;20120;-62
2023/01/21 19:56:23;;;;;;;4.88;3.70;;;;;;;;;;10365273;28;20026;-58
2023/01/21 20:01:23;;;;;;;7.22;4.00;;;;;;;;;;10367335;28;20038;-61
2023/01/21 20:06:24;;;;;;;9.40;4.47;;;;;;;;;;10371616;28;20042;-58
2023/01/21 20:11:24;;;;;;;11.38;4.53;;;;;;;;;;10374261;28;20044;-62
2023/01/21 20:16:25;;;;;;;13.32;4.97;;;;;;;;;;10371959;28;20030;-57
2023/01/21 20:21:26;;;;;;;13.55;5.22;;;;;;;;;;10361910;28;20029;-62
2023/01/21 20:26:27;;;;;;;8.45;4.95;;;;;;;;;;10367606;28;20128;-58
2023/01/21 20:31:29;;;;;;;9.23;4.57;;;;;;;;;;10363922;28;20026;-60
2023/01/21 20:36:29;;;;;;;8.52;5.00;;;;;;;;;;10363744;28;20018;-52
2023/01/21 20:41:30;;;;;;;9.00;5.20;;;;;;;;;;10371509;28;20482;-51
2023/01/21 20:46:32;;;;;;;7.35;4.55;;;;;;;;;;10366549;28;20034;-57
2023/01/21 20:51:32;;;;;;;9.60;4.47;;;;;;;;;;10366923;28;20049;-57
2023/01/21 20:56:33;;;;;;;11.10;5.25;;;;;;;;;;10371241;28;20034;-53
2023/01/21 21:01:35;;;;;;;6.50;3.92;;;;;;;;;;10378710;28;20034;-55
2023/01/21 21:06:38;;;;;;;7.25;4.15;;;;;;;;;;10367371;28;20033;-57
2023/01/21 21:11:39;;;;;;;6.70;4.22;;;;;;;;;;10364229;28;20116;-58
2023/01/21 21:16:39;;;;;;;10.45;5.38;;;;;;;;;;10371294;28;20029;-46
2023/01/21 21:21:40;;;;;;;7.45;4.47;;;;;;;;;;10368174;28;20030;-58
2023/01/21 21:26:42;;;;;;;8.07;4.70;;;;;;;;;;10366229;28;20095;-62
2023/01/21 21:31:43;;;;;;;6.38;4.00;;;;;;;;;;10373073;28;20029;-62
2023/01/21 21:36:44;;;;;;;9.23;5.32;;;;;;;;;;10363404;28;20492;-58
2023/01/21 21:52:23;;;;;;;7.72;4.57;;;;;;;;;;10371246;28;20041;-60
2023/01/21 21:57:23;;;;;;;12.00;4.75;;;;;;;;;;10372075;28;20034;-62
2023/01/21 22:02:24;;;;;;;7.38;4.57;;;;;;;;;;10363804;28;20033;-61
2023/01/21 22:07:25;;;;;;;12.05;5.18;;;;;;;;;;10364980;28;20366;-57
2023/01/21 22:12:25;;;;;;;9.98;5.60;;;;;;;;;;10365361;28;20378;-58
2023/01/21 22:17:26;;;;;;;16.88;5.75;;;;;;;;;;10369150;28;20394;-47
2023/01/21 22:22:27;;;;;;;15.45;6.55;;;;;;;;;;10362149;28;20515;-47
2023/01/21 22:27:27;;;;;;;15.32;6.13;;;;;;;;;;10375003;28;20029;-46
2023/01/21 22:32:28;;;;;;;12.07;6.60;;;;;;;;;;10371984;28;20029;-49
2023/01/21 22:37:29;;;;;;;12.10;6.32;;;;;;;;;;10373378;28;20036;-55
2023/01/21 22:42:29;;;;;;;15.10;6.70;;;;;;;;;;10369334;28;20026;-47
2023/01/21 22:47:30;;;;;;;13.27;6.30;;;;;;;;;;10374054;28;20033;-45
2023/01/21 22:52:31;;;;;;;10.60;6.65;;;;;;;;;;10373797;28;20077;-57
2023/01/21 22:57:32;;;;;;;11.15;6.50;;;;;;;;;;10369868;28;20037;-49
2023/01/21 23:02:32;;;;;;;13.70;6.38;;;;;;;;;;10380334;28;20053;-48
2023/01/21 23:07:33;;;;;;;13.80;7.15;;;;;;;;;;10369883;28;20266;-45
2023/01/21 23:12:33;;;;;;;19.48;6.82;;;;;;;;;;10352738;28;20343;-45
2023/01/21 23:17:34;;;;;;;11.52;6.70;;;;;;;;;;10369792;28;20405;-46
2023/01/21 23:22:34;;;;;;;11.38;6.78;;;;;;;;;;10370496;28;20030;-46
2023/01/21 23:27:35;;;;;;;12.85;6.68;;;;;;;;;;10369676;28;20030;-52
2023/01/21 23:32:35;;;;;;;14.00;7.32;;;;;;;;;;10353452;28;20689;-45
2023/01/21 23:37:37;;;;;;;12.27;6.63;;;;;;;;;;10373394;28;20037;-52
2023/01/21 23:42:37;;;;;;;13.23;7.00;;;;;;;;;;10367870;28;20026;-46
2023/01/21 23:47:38;;;;;;;9.70;5.93;;;;;;;;;;10373975;28;20037;-45
2023/01/21 23:52:39;;;;;;;12.88;6.93;;;;;;;;;;10370557;28;20045;-45
2023/01/21 23:57:40;;;;;;;9.15;5.85;;;;;;;;;;10373503;28;20034;-47
